createdAt,value
2023-02-05T00:01:16.894Z,5.45
2023-02-05T00:04:41.794Z,3.90
2023-02-05T00:07:41.805Z,3.90
2023-02-05T00:10:56.805Z,5.70
2023-02-05T00:14:10.901Z,4.73
2023-02-05T00:17:22.945Z,4.67
2023-02-05T00:20:23.939Z,4.47
2023-02-05T00:23:35.874Z,4.17
2023-02-05T00:26:47.894Z,5.05
2023-02-05T00:30:12.922Z,4.00
2023-02-05T00:33:13.002Z,5.03
2023-02-05T00:36:40.960Z,4.70
2023-02-05T00:39:40.992Z,4.15
2023-02-05T00:42:52.978Z,6.10
2023-02-05T00:46:06.967Z,5.70
2023-02-05T00:49:19.942Z,4.33
2023-02-05T00:52:20.040Z,4.40
2023-02-05T00:55:32.303Z,4.70
2023-02-05T00:58:44.045Z,4.23
2023-02-05T01:02:10.124Z,5.53
2023-02-05T01:05:10.028Z,5.43
2023-02-05T01:08:34.984Z,5.20
2023-02-05T01:11:47.094Z,4.70
2023-02-05T01:14:59.071Z,5.80
2023-02-05T01:18:13.097Z,5.15
2023-02-05T01:21:26.109Z,10.30
2023-02-05T01:24:26.039Z,5.63
2023-02-05T01:27:38.113Z,5.03
2023-02-05T01:30:39.167Z,6.50
2023-02-05T01:34:05.140Z,6.50
2023-02-05T01:37:05.150Z,4.13
2023-02-05T01:40:30.167Z,5.20
2023-02-05T01:43:42.182Z,5.35
2023-02-05T01:47:13.213Z,5.85
2023-02-05T01:50:39.144Z,6.97
2023-02-05T01:54:06.134Z,5.55
2023-02-05T01:57:18.277Z,6.67
2023-02-05T02:00:42.208Z,5.60
2023-02-05T02:04:07.205Z,6.17
2023-02-05T02:07:21.225Z,4.95
2023-02-05T02:10:46.338Z,6.63
2023-02-05T02:13:58.189Z,5.10
2023-02-05T02:17:22.256Z,9.20
2023-02-05T02:20:34.216Z,5.75
2023-02-05T02:24:00.327Z,7.50
2023-02-05T02:27:18.360Z,8.77
2023-02-05T02:30:45.340Z,7.83
2023-02-05T02:34:09.324Z,5.05
2023-02-05T02:37:33.403Z,5.00
2023-02-05T02:40:45.279Z,5.70
2023-02-05T02:44:14.422Z,6.13
2023-02-05T02:47:27.355Z,4.60
2023-02-05T02:50:51.401Z,7.57
2023-02-05T02:54:03.494Z,4.33
2023-02-05T02:57:27.346Z,6.93
2023-02-05T03:00:40.409Z,6.03
2023-02-05T03:04:06.440Z,7.23
2023-02-05T03:07:18.393Z,5.40
2023-02-05T03:10:43.406Z,4.45
2023-02-05T03:13:55.469Z,6.85
2023-02-05T03:17:20.454Z,8.70
2023-02-05T03:20:46.428Z,6.10
2023-02-05T03:24:10.558Z,6.40
2023-02-05T03:27:22.469Z,6.60
2023-02-05T03:30:46.568Z,7.00
2023-02-05T03:34:10.438Z,5.15
2023-02-05T03:37:37.539Z,4.87
2023-02-05T03:41:02.550Z,4.63
2023-02-05T03:44:27.459Z,4.73
2023-02-05T03:47:53.569Z,4.97
2023-02-05T03:51:20.534Z,6.13
2023-02-05T03:54:46.514Z,7.23
2023-02-05T03:58:12.602Z,6.25
2023-02-05T04:01:36.546Z,9.93
2023-02-05T04:05:00.549Z,5.00
2023-02-05T04:08:12.633Z,5.67
2023-02-05T04:11:39.550Z,4.37
2023-02-05T04:15:04.654Z,5.15
2023-02-05T04:18:17.664Z,4.60
2023-02-05T04:21:29.649Z,4.00
2023-02-05T04:24:41.599Z,16.73
2023-02-05T04:28:07.632Z,4.93
2023-02-05T04:31:21.707Z,5.87
2023-02-05T04:34:34.657Z,7.55
2023-02-05T04:37:46.642Z,18.23
2023-02-05T04:40:58.713Z,8.13
2023-02-05T04:44:24.648Z,5.03
2023-02-05T04:47:25.763Z,8.27
2023-02-05T04:50:50.749Z,7.80
2023-02-05T04:54:02.756Z,10.73
2023-02-05T04:57:14.785Z,5.35
2023-02-05T05:00:28.785Z,6.03
2023-02-05T05:03:52.791Z,11.27
2023-02-05T05:06:52.734Z,4.80
2023-02-05T05:10:04.816Z,8.80
2023-02-05T05:13:05.820Z,4.50
2023-02-05T05:16:31.863Z,11.30
2023-02-05T05:19:31.853Z,9.10
2023-02-05T05:22:44.919Z,7.07
2023-02-05T05:25:44.805Z,11.80
2023-02-05T05:28:56.885Z,15.60
2023-02-05T05:32:09.852Z,12.10
2023-02-05T05:35:27.913Z,17.17
2023-02-05T05:38:27.939Z,12.83
2023-02-05T05:41:45.488Z,19.67
2023-02-05T05:44:46.134Z,15.00
2023-02-05T05:48:11.929Z,11.50
2023-02-05T05:51:26.906Z,18.05
2023-02-05T05:54:38.911Z,20.63
2023-02-05T05:57:38.898Z,9.85
2023-02-05T06:01:02.937Z,12.25
2023-02-05T06:04:28.049Z,14.10
2023-02-05T06:07:27.937Z,15.00
2023-02-05T06:10:39.969Z,10.47
2023-02-05T06:13:39.984Z,15.93
2023-02-05T06:17:05.008Z,11.07
2023-02-05T06:20:18.956Z,12.03
2023-02-05T06:23:31.058Z,10.03
2023-02-05T06:26:31.065Z,14.23
2023-02-05T06:29:42.972Z,16.03
2023-02-05T06:32:43.067Z,10.15
2023-02-05T06:36:09.016Z,8.95
2023-02-05T06:39:09.079Z,9.03
2023-02-05T06:42:22.107Z,7.77
2023-02-05T06:45:34.339Z,6.43
2023-02-05T06:48:46.026Z,6.57
2023-02-05T06:52:00.112Z,7.27
2023-02-05T06:55:12.113Z,5.20
2023-02-05T06:58:12.140Z,5.60
2023-02-05T07:01:25.300Z,3.30
2023-02-05T07:04:25.085Z,3.23
2023-02-05T07:07:53.188Z,3.30
2023-02-05T07:10:53.188Z,4.33
2023-02-05T07:14:05.205Z,5.03
2023-02-05T07:17:05.162Z,7.47
2023-02-05T07:20:18.236Z,6.40
2023-02-05T07:23:32.172Z,3.85
2023-02-05T07:26:44.202Z,1.83
2023-02-05T07:29:44.239Z,3.80
2023-02-05T07:32:56.186Z,2.00
2023-02-05T07:35:56.279Z,4.53
2023-02-05T07:39:22.263Z,8.45
2023-02-05T07:42:22.229Z,2.67
2023-02-05T07:45:47.289Z,4.60
2023-02-05T07:48:59.236Z,4.03
2023-02-05T07:52:12.324Z,2.67
2023-02-05T07:55:26.263Z,4.10
2023-02-05T07:58:39.291Z,2.23
2023-02-05T08:01:39.387Z,4.75
2023-02-05T08:04:51.268Z,4.85
2023-02-05T08:07:51.367Z,3.90
2023-02-05T08:11:21.338Z,3.50
2023-02-05T08:14:21.357Z,2.13
2023-02-05T08:17:45.334Z,1.95
2023-02-05T08:20:45.332Z,1.45
2023-02-05T08:24:09.344Z,2.90
2023-02-05T08:27:23.420Z,2.13
2023-02-05T08:30:35.408Z,2.53
2023-02-05T08:33:47.515Z,4.20
2023-02-05T08:36:59.425Z,3.30
2023-02-05T08:40:02.457Z,4.10
2023-02-05T08:43:28.473Z,4.23
2023-02-05T08:46:49.367Z,2.13
2023-02-05T08:50:04.496Z,1.80
2023-02-05T08:53:04.484Z,0.60
2023-02-05T08:56:28.465Z,5.75
2023-02-05T08:59:41.505Z,1.93
2023-02-05T09:03:06.474Z,8.55
2023-02-05T09:06:06.518Z,5.55
2023-02-05T09:09:18.462Z,6.13
2023-02-05T09:12:19.506Z,4.57
2023-02-05T09:15:47.785Z,3.77
2023-02-05T09:18:57.557Z,6.90
2023-02-05T09:22:09.621Z,4.47
2023-02-05T09:25:09.563Z,3.10
2023-02-05T09:28:34.570Z,6.87
2023-02-05T09:31:47.633Z,2.67
2023-02-05T09:34:59.616Z,4.60
2023-02-05T09:37:59.602Z,4.97
2023-02-05T09:41:23.587Z,4.55
2023-02-05T09:44:36.590Z,4.53
2023-02-05T09:48:02.633Z,6.53
2023-02-05T09:51:14.613Z,8.10
2023-02-05T09:54:38.746Z,6.40
2023-02-05T09:57:54.698Z,10.30
2023-02-05T10:01:19.676Z,3.90
2023-02-05T10:04:45.699Z,3.33
2023-02-05T10:07:59.843Z,5.57
2023-02-05T10:11:23.739Z,2.80
2023-02-05T10:14:36.693Z,2.60
2023-02-05T10:18:02.716Z,5.67
2023-02-05T10:21:18.742Z,6.85
2023-02-05T10:24:48.725Z,3.55
2023-02-05T10:28:12.738Z,6.90
2023-02-05T10:31:37.783Z,6.27
2023-02-05T10:34:51.769Z,4.77
2023-02-05T10:38:17.773Z,3.40
2023-02-05T10:41:29.864Z,4.55
2023-02-05T10:44:53.786Z,3.73
2023-02-05T10:48:10.864Z,2.53
2023-02-05T10:51:35.813Z,5.00
2023-02-05T10:54:49.794Z,6.15
2023-02-05T10:58:02.856Z,6.60
2023-02-05T11:01:14.841Z,8.05
2023-02-05T11:04:39.042Z,7.30
2023-02-05T11:07:50.907Z,8.43
2023-02-05T11:11:16.870Z,9.67
2023-02-05T11:14:28.996Z,9.67
2023-02-05T11:17:52.954Z,3.17
2023-02-05T11:21:04.931Z,11.07
2023-02-05T11:24:17.969Z,9.83
2023-02-05T11:27:38.955Z,5.90
2023-02-05T11:31:03.051Z,10.57
2023-02-05T11:34:02.980Z,8.03
2023-02-05T11:37:27.008Z,9.13
2023-02-05T11:40:45.949Z,10.37
2023-02-05T11:44:12.070Z,10.65
2023-02-05T11:47:24.023Z,7.80
2023-02-05T11:50:47.987Z,7.20
2023-02-05T11:54:00.025Z,10.45
2023-02-05T11:57:25.104Z,8.80
2023-02-05T12:00:45.111Z,11.80
2023-02-05T12:04:09.110Z,7.20
2023-02-05T12:07:23.049Z,11.75
2023-02-05T12:10:48.100Z,11.57
2023-02-05T12:14:03.106Z,12.60
2023-02-05T12:17:28.117Z,13.27
2023-02-05T12:20:41.076Z,15.00
2023-02-05T12:24:11.121Z,10.20
2023-02-05T12:27:23.195Z,9.43
2023-02-05T12:30:52.313Z,13.53
2023-02-05T12:34:10.172Z,10.97
2023-02-05T12:37:36.185Z,12.13
2023-02-05T12:40:54.168Z,12.63
2023-02-05T12:44:18.188Z,13.47
2023-02-05T12:47:33.206Z,8.75
2023-02-05T12:51:00.178Z,9.67
2023-02-05T12:54:17.239Z,18.33
2023-02-05T12:57:43.240Z,20.43
2023-02-05T13:00:55.254Z,18.30
2023-02-05T13:04:19.255Z,13.83
2023-02-05T13:07:31.249Z,17.80
2023-02-05T13:10:56.266Z,8.60
2023-02-05T13:14:10.370Z,16.70
2023-02-05T13:17:36.253Z,11.87
2023-02-05T13:20:57.434Z,14.05
2023-02-05T13:24:26.893Z,14.67
2023-02-05T13:27:44.889Z,16.83
2023-02-05T13:31:12.336Z,10.10
2023-02-05T13:34:25.366Z,19.30
2023-02-05T13:37:52.305Z,13.20
2023-02-05T13:41:20.399Z,13.53
2023-02-05T13:44:50.397Z,11.03
2023-02-05T13:48:12.696Z,12.00
2023-02-05T13:51:39.385Z,16.50
2023-02-05T13:55:00.365Z,12.60
2023-02-05T13:58:33.429Z,16.10
2023-02-05T14:01:45.654Z,14.35
2023-02-05T14:05:11.596Z,14.05
2023-02-05T14:08:23.423Z,9.83
2023-02-05T14:11:47.473Z,13.53
2023-02-05T14:14:59.442Z,7.35
2023-02-05T14:18:11.482Z,13.23
2023-02-05T14:21:25.459Z,14.40
2023-02-05T14:24:49.473Z,16.60
2023-02-05T14:28:12.549Z,16.90
2023-02-05T14:31:39.538Z,14.83
2023-02-05T14:34:52.556Z,12.90
2023-02-05T14:38:18.534Z,20.60
2023-02-05T14:41:30.605Z,13.07
2023-02-05T14:44:55.607Z,13.50
2023-02-05T14:48:08.551Z,17.50
2023-02-05T14:51:32.663Z,15.87
2023-02-05T14:54:47.539Z,12.57
2023-02-05T14:58:11.562Z,13.70
2023-02-05T15:01:30.671Z,12.90
2023-02-05T15:04:58.594Z,14.70
2023-02-05T15:08:10.572Z,12.13
2023-02-05T15:11:38.628Z,14.55
2023-02-05T15:14:51.617Z,13.05
2023-02-05T15:18:16.613Z,14.40
2023-02-05T15:21:28.637Z,13.60
2023-02-05T15:24:52.632Z,12.77
2023-02-05T15:28:06.722Z,12.00
2023-02-05T15:31:39.875Z,12.37
2023-02-05T15:34:52.702Z,17.70
2023-02-05T15:38:16.778Z,16.95
2023-02-05T15:41:29.715Z,16.90
2023-02-05T15:44:54.716Z,16.77
2023-02-05T15:48:06.765Z,18.07
2023-02-05T15:51:34.732Z,21.43
2023-02-05T15:54:46.764Z,10.80
2023-02-05T15:58:10.768Z,10.03
2023-02-05T16:01:24.913Z,11.70
2023-02-05T16:04:53.090Z,11.97
2023-02-05T16:08:04.819Z,18.33
2023-02-05T16:11:17.865Z,24.70
2023-02-05T16:14:30.850Z,17.05
2023-02-05T16:17:57.824Z,12.50
2023-02-05T16:21:09.825Z,13.10
2023-02-05T16:24:33.910Z,18.37
2023-02-05T16:27:45.903Z,9.63
2023-02-05T16:31:09.952Z,12.15
2023-02-05T16:34:23.910Z,15.95
2023-02-05T16:37:47.978Z,12.07
2023-02-05T16:40:59.884Z,14.85
2023-02-05T16:44:23.984Z,16.70
2023-02-05T16:47:36.922Z,16.37
2023-02-05T16:51:02.980Z,18.40
2023-02-05T16:54:02.915Z,15.17
2023-02-05T16:57:31.016Z,13.50
2023-02-05T17:00:42.957Z,12.50
2023-02-05T17:04:08.020Z,18.30
2023-02-05T17:07:22.087Z,10.05
2023-02-05T17:10:46.984Z,19.87
2023-02-05T17:14:01.069Z,13.63
2023-02-05T17:17:26.002Z,14.33
2023-02-05T17:20:43.077Z,11.80
2023-02-05T17:24:13.021Z,13.83
2023-02-05T17:27:13.021Z,13.57
2023-02-05T17:30:38.308Z,18.55
2023-02-05T17:33:50.068Z,23.05
2023-02-05T17:37:05.188Z,19.77
2023-02-05T17:40:18.093Z,15.47
2023-02-05T17:43:30.100Z,11.60
2023-02-05T17:46:30.136Z,17.65
2023-02-05T17:49:55.323Z,18.50
2023-02-05T17:53:07.321Z,19.40
2023-02-05T17:56:33.192Z,17.47
2023-02-05T17:59:45.116Z,10.73
2023-02-05T18:02:57.211Z,15.15
2023-02-05T18:06:22.241Z,20.23
2023-02-05T18:09:34.182Z,15.10
2023-02-05T18:13:00.233Z,15.37
2023-02-05T18:16:12.591Z,11.70
2023-02-05T18:19:36.185Z,18.10
2023-02-05T18:22:36.291Z,11.85
2023-02-05T18:25:48.216Z,16.25
2023-02-05T18:29:02.260Z,16.07
2023-02-05T18:32:27.281Z,12.90
2023-02-05T18:35:30.263Z,13.10
2023-02-05T18:46:02.297Z,16.37
2023-02-05T18:49:24.734Z,12.70
2023-02-05T18:52:51.806Z,21.37
2023-02-05T18:56:02.771Z,12.35
2023-02-05T18:59:43.825Z,18.83
2023-02-05T19:03:12.422Z,12.05
2023-02-05T19:06:38.767Z,11.55
2023-02-05T19:10:06.352Z,8.80
2023-02-05T19:13:37.267Z,15.03
2023-02-05T19:17:08.238Z,12.40
2023-02-05T19:20:46.052Z,13.93
2023-02-05T19:23:52.490Z,9.15
2023-02-05T19:27:34.606Z,10.35
2023-02-05T19:30:37.946Z,12.75
2023-02-05T19:34:01.457Z,8.77
2023-02-05T19:37:15.484Z,8.25
2023-02-05T19:40:27.546Z,6.57
2023-02-05T19:43:28.448Z,14.60
2023-02-05T19:46:52.458Z,9.93
2023-02-05T19:50:04.510Z,8.50
2023-02-05T19:53:30.474Z,9.13
2023-02-05T19:56:45.527Z,11.77
2023-02-05T19:59:57.507Z,8.40
2023-02-05T20:03:00.569Z,5.53
2023-02-05T20:06:27.595Z,7.63
2023-02-05T20:09:41.532Z,10.45
2023-02-05T20:13:05.556Z,8.70
2023-02-05T20:16:17.597Z,6.25
2023-02-05T20:19:41.630Z,10.07
2023-02-05T20:22:42.596Z,6.85
2023-02-05T20:26:10.591Z,8.05
2023-02-05T20:29:30.661Z,12.53
2023-02-05T20:32:43.658Z,5.93
2023-02-05T20:35:43.671Z,9.57
2023-02-05T20:38:56.720Z,10.63
2023-02-05T20:42:10.791Z,5.30
2023-02-05T20:45:23.701Z,7.40
2023-02-05T20:48:24.648Z,6.85
2023-02-05T20:51:36.714Z,6.33
2023-02-05T20:54:36.699Z,8.65
2023-02-05T20:58:02.678Z,6.13
2023-02-05T21:01:02.737Z,6.27
2023-02-05T21:04:26.710Z,5.65
2023-02-05T21:07:26.710Z,11.87
2023-02-05T21:10:38.740Z,5.75
2023-02-05T21:13:51.832Z,9.00
2023-02-05T21:17:07.812Z,7.33
2023-02-05T21:20:07.793Z,4.00
2023-02-05T21:23:19.751Z,4.27
2023-02-05T21:26:31.766Z,4.17
2023-02-05T21:29:57.807Z,7.35
2023-02-05T21:32:57.837Z,4.70
2023-02-05T21:36:22.879Z,6.43
2023-02-05T21:39:34.833Z,5.70
2023-02-05T21:42:46.840Z,5.20
2023-02-05T21:46:00.895Z,8.70
2023-02-05T21:49:24.821Z,7.47
2023-02-05T21:52:24.916Z,5.73
2023-02-05T21:55:36.981Z,7.30
2023-02-05T21:58:37.005Z,7.60
2023-02-05T22:02:02.912Z,5.30
2023-02-05T22:05:14.974Z,4.40
2023-02-05T22:08:14.930Z,9.10
2023-02-05T22:11:38.886Z,7.07
2023-02-05T22:14:39.034Z,8.20
2023-02-05T22:18:05.983Z,4.37
2023-02-05T22:21:06.045Z,8.50
2023-02-05T22:24:30.054Z,4.25
2023-02-05T22:27:30.034Z,5.77
2023-02-05T22:30:42.024Z,10.17
2023-02-05T22:33:56.040Z,9.27
2023-02-05T22:37:08.025Z,5.43
2023-02-05T22:40:08.063Z,5.03
2023-02-05T22:43:21.031Z,9.40
2023-02-05T22:46:32.999Z,8.30
2023-02-05T22:49:59.015Z,7.50
2023-02-05T22:52:59.085Z,5.40
2023-02-05T22:56:25.106Z,10.60
2023-02-05T22:59:37.089Z,3.80
2023-02-05T23:02:49.130Z,6.53
2023-02-05T23:06:03.240Z,7.13
2023-02-05T23:09:27.057Z,4.10
2023-02-05T23:12:27.074Z,5.25
2023-02-05T23:15:54.118Z,5.30
2023-02-05T23:19:06.166Z,2.83
2023-02-05T23:22:32.248Z,6.30
2023-02-05T23:25:32.169Z,4.43
2023-02-05T23:28:44.193Z,5.13
2023-02-05T23:31:44.397Z,6.07
2023-02-05T23:35:08.186Z,4.23
2023-02-05T23:38:22.190Z,4.90
2023-02-05T23:41:49.238Z,5.80
2023-02-05T23:44:49.231Z,3.80
2023-02-05T23:48:02.286Z,10.60
2023-02-05T23:51:14.289Z,5.20
2023-02-05T23:54:45.276Z,3.80
2023-02-05T23:57:45.230Z,2.95
